createdAt,value
2018-12-21T00:00:20.541Z,73.50
2018-12-21T00:02:51.782Z,75.77
2018-12-21T00:05:21.307Z,87.33
2018-12-21T00:07:50.802Z,83.57
2018-12-21T00:10:20.307Z,81.67
2018-12-21T00:12:49.806Z,84.90
2018-12-21T00:15:19.355Z,80.73
2018-12-21T00:17:48.860Z,84.23
2018-12-21T00:20:18.359Z,85.63
2018-12-21T00:22:47.895Z,79.80
2018-12-21T00:25:17.414Z,92.13
2018-12-21T00:27:46.905Z,82.67
2018-12-21T00:30:22.117Z,73.47
2018-12-21T00:32:57.805Z,72.97
2018-12-21T00:35:32.506Z,80.07
2018-12-21T00:38:07.322Z,80.63
2018-12-21T00:40:42.178Z,75.37
2018-12-21T00:44:15.578Z,73.23
2018-12-21T00:46:50.002Z,80.17
2018-12-21T00:49:19.898Z,75.73
2018-12-21T00:51:49.406Z,69.27
2018-12-21T00:54:18.946Z,80.97
2018-12-21T00:56:48.460Z,69.63
2018-12-21T00:59:17.967Z,74.33
2018-12-21T01:01:48.259Z,75.63
2018-12-21T01:04:17.816Z,79.87
2018-12-21T01:06:47.340Z,70.80
2018-12-21T01:09:16.919Z,74.97
2018-12-21T01:11:46.419Z,68.27
2018-12-21T01:14:16.716Z,64.23
2018-12-21T01:16:47.975Z,67.73
2018-12-21T01:19:17.623Z,63.23
2018-12-21T01:21:47.119Z,65.07
2018-12-21T01:24:16.610Z,75.53
2018-12-21T01:26:46.110Z,70.80
2018-12-21T01:29:15.628Z,74.43
2018-12-21T01:31:45.150Z,78.17
2018-12-21T01:34:14.667Z,78.73
2018-12-21T01:36:44.153Z,68.70
2018-12-21T01:39:13.682Z,70.07
2018-12-21T01:41:43.187Z,64.63
2018-12-21T01:44:12.453Z,65.23
2018-12-21T01:46:42.159Z,66.40
2018-12-21T01:49:11.701Z,71.77
2018-12-21T01:51:47.047Z,65.87
2018-12-21T01:54:12.383Z,66.17
2018-12-21T01:56:41.827Z,64.67
2018-12-21T01:59:11.323Z,65.50
2018-12-21T02:01:40.827Z,57.47
2018-12-21T02:04:10.327Z,59.33
2018-12-21T02:06:39.839Z,63.40
2018-12-21T02:09:09.343Z,74.53
2018-12-21T02:11:38.855Z,59.33
2018-12-21T02:14:09.438Z,66.50
2018-12-21T02:16:38.979Z,72.03
2018-12-21T02:19:08.484Z,62.30
2018-12-21T02:21:38.089Z,56.57
2018-12-21T02:24:07.818Z,67.17
2018-12-21T02:26:37.342Z,81.90
2018-12-21T02:29:06.936Z,62.73
2018-12-21T02:31:36.446Z,60.50
2018-12-21T02:34:06.004Z,57.50
2018-12-21T02:36:35.130Z,57.73
2018-12-21T02:39:06.850Z,56.40
2018-12-21T02:41:36.378Z,62.83
2018-12-21T02:44:05.874Z,59.43
2018-12-21T02:46:35.009Z,58.70
2018-12-21T02:49:04.474Z,65.27
2018-12-21T02:51:33.997Z,59.50
2018-12-21T02:54:04.009Z,60.30
2018-12-21T02:56:33.507Z,55.23
2018-12-21T02:59:03.035Z,53.10
2018-12-21T03:01:32.523Z,53.77
2018-12-21T03:04:02.027Z,53.17
2018-12-21T03:06:31.532Z,45.93
2018-12-21T03:09:01.051Z,50.17
2018-12-21T03:11:31.938Z,50.83
2018-12-21T03:14:01.443Z,56.60
2018-12-21T03:16:30.982Z,50.47
2018-12-21T03:19:00.499Z,46.40
2018-12-21T03:21:29.638Z,64.43
2018-12-21T03:23:59.083Z,47.63
2018-12-21T03:26:28.566Z,50.50
2018-12-21T03:28:58.060Z,52.80
2018-12-21T03:31:27.563Z,53.20
2018-12-21T03:33:57.073Z,49.27
2018-12-21T03:36:26.608Z,45.30
2018-12-21T03:38:56.103Z,47.60
2018-12-21T03:41:25.254Z,48.03
2018-12-21T03:43:54.699Z,44.93
2018-12-21T03:46:24.203Z,39.80
2018-12-21T03:48:53.716Z,37.83
2018-12-21T03:51:23.519Z,44.03
2018-12-21T03:53:53.043Z,43.70
2018-12-21T03:56:22.534Z,42.30
2018-12-21T03:58:52.051Z,39.57
2018-12-21T04:01:21.550Z,46.70
2018-12-21T04:03:51.039Z,42.70
2018-12-21T04:06:20.571Z,44.70
2018-12-21T04:08:50.086Z,44.30
2018-12-21T04:11:19.579Z,46.53
2018-12-21T04:13:49.133Z,40.37
2018-12-21T04:16:18.630Z,46.27
2018-12-21T04:18:48.137Z,37.33
2018-12-21T04:21:18.599Z,36.73
2018-12-21T04:23:48.186Z,37.37
2018-12-21T04:26:17.886Z,48.43
2018-12-21T04:28:47.388Z,43.87
2018-12-21T04:31:16.884Z,48.87
2018-12-21T04:33:46.442Z,45.20
2018-12-21T04:36:15.583Z,37.60
2018-12-21T04:38:45.038Z,38.47
2018-12-21T04:41:14.594Z,35.23
2018-12-21T04:43:44.094Z,34.77
2018-12-21T04:46:13.607Z,35.67
2018-12-21T04:48:43.118Z,31.80
2018-12-21T04:51:12.655Z,35.93
2018-12-21T04:53:42.159Z,36.30
2018-12-21T04:56:11.699Z,33.43
2018-12-21T04:58:41.198Z,37.50
2018-12-21T05:01:10.880Z,32.43
2018-12-21T05:03:40.398Z,35.57
2018-12-21T05:06:09.903Z,42.33
2018-12-21T05:08:39.395Z,43.07
2018-12-21T05:11:08.899Z,40.63
2018-12-21T05:13:38.966Z,41.63
2018-12-21T05:16:08.523Z,44.90
2018-12-21T05:18:38.035Z,47.83
2018-12-21T05:21:07.539Z,40.60
2018-12-21T05:23:37.062Z,43.83
2018-12-21T05:26:06.587Z,46.57
2018-12-21T05:28:36.091Z,42.07
2018-12-21T05:31:05.599Z,42.03
2018-12-21T05:33:35.134Z,51.20
2018-12-21T05:36:04.655Z,45.97
2018-12-21T05:38:34.146Z,46.50
2018-12-21T05:41:03.688Z,51.87
2018-12-21T05:43:33.194Z,52.33
2018-12-21T05:46:02.726Z,57.53
2018-12-21T05:48:32.231Z,50.70
2018-12-21T05:51:01.782Z,46.07
2018-12-21T05:53:31.286Z,49.37
2018-12-21T05:56:00.806Z,56.47
2018-12-21T05:58:30.367Z,43.27
2018-12-21T06:00:59.867Z,37.50
2018-12-21T06:03:29.406Z,36.97
2018-12-21T06:05:58.894Z,43.23
2018-12-21T06:08:28.914Z,41.77
2018-12-21T06:10:58.446Z,47.53
2018-12-21T06:13:28.247Z,40.47
2018-12-21T06:15:57.738Z,41.03
2018-12-21T06:18:27.302Z,37.07
2018-12-21T06:20:56.802Z,42.37
2018-12-21T06:23:26.315Z,36.90
2018-12-21T06:25:55.822Z,35.93
2018-12-21T06:28:25.336Z,42.00
2018-12-21T06:30:54.843Z,36.03
2018-12-21T06:33:24.360Z,38.23
2018-12-21T06:35:53.878Z,37.00
2018-12-21T06:38:23.382Z,34.37
2018-12-21T06:40:52.940Z,37.60
2018-12-21T06:43:22.438Z,38.77
2018-12-21T06:45:52.714Z,37.60
2018-12-21T06:48:22.215Z,43.73
2018-12-21T06:50:51.757Z,30.87
2018-12-21T06:53:21.377Z,38.23
2018-12-21T06:55:50.879Z,34.77
2018-12-21T06:58:20.378Z,30.70
2018-12-21T07:00:49.930Z,40.73
2018-12-21T07:03:19.070Z,41.00
2018-12-21T07:05:48.502Z,35.53
2018-12-21T07:08:18.386Z,37.80
2018-12-21T07:10:47.906Z,39.37
2018-12-21T07:13:17.419Z,46.63
2018-12-21T07:15:46.962Z,44.57
2018-12-21T07:18:16.458Z,37.30
2018-12-21T07:20:45.955Z,37.57
2018-12-21T07:23:15.466Z,36.07
2018-12-21T07:25:44.992Z,30.43
2018-12-21T07:28:14.531Z,31.03
2018-12-21T07:30:44.034Z,30.47
2018-12-21T07:33:13.540Z,35.40
2018-12-21T07:35:43.062Z,30.50
2018-12-21T07:38:12.208Z,76.97
2018-12-21T07:40:41.670Z,47.73
2018-12-21T07:43:11.173Z,34.53
2018-12-21T07:45:40.666Z,34.70
2018-12-21T07:48:10.174Z,34.90
2018-12-21T07:50:39.317Z,36.77
2018-12-21T07:53:08.736Z,36.33
2018-12-21T07:55:38.246Z,33.47
2018-12-21T07:58:07.769Z,32.07
2018-12-21T08:00:37.288Z,31.40
2018-12-21T08:03:06.802Z,36.10
2018-12-21T08:05:36.332Z,38.47
2018-12-21T08:08:05.871Z,36.17
2018-12-21T08:10:35.395Z,32.87
2018-12-21T08:13:04.931Z,32.50
2018-12-21T08:15:34.435Z,30.13
2018-12-21T08:18:03.951Z,31.77
2018-12-21T08:20:33.475Z,34.67
2018-12-21T08:23:03.032Z,41.37
2018-12-21T08:25:32.542Z,35.57
2018-12-21T08:28:02.085Z,33.37
2018-12-21T08:30:31.266Z,43.20
2018-12-21T08:33:00.763Z,55.03
2018-12-21T08:35:31.362Z,38.67
2018-12-21T08:38:00.890Z,44.40
2018-12-21T08:40:30.427Z,41.10
2018-12-21T08:42:59.935Z,34.07
2018-12-21T08:45:29.454Z,29.63
2018-12-21T08:47:58.947Z,38.00
2018-12-21T08:50:28.453Z,33.30
2018-12-21T08:52:57.966Z,35.40
2018-12-21T08:55:27.114Z,34.43
2018-12-21T08:57:56.555Z,31.97
2018-12-21T09:00:26.206Z,33.30
2018-12-21T09:02:55.787Z,32.50
2018-12-21T09:05:25.310Z,29.23
2018-12-21T09:07:55.127Z,29.80
2018-12-21T09:10:24.642Z,27.27
2018-12-21T09:12:54.266Z,26.77
2018-12-21T09:15:23.755Z,28.80
2018-12-21T09:17:53.257Z,32.77
2018-12-21T09:20:22.435Z,29.27
2018-12-21T09:22:51.852Z,30.73
2018-12-21T09:25:21.374Z,28.07
2018-12-21T09:27:50.521Z,31.00
2018-12-21T09:30:20.003Z,31.63
2018-12-21T09:32:49.510Z,33.37
2018-12-21T09:35:19.494Z,25.97
2018-12-21T09:37:51.795Z,30.07
2018-12-21T09:40:24.109Z,33.10
2018-12-21T09:42:54.891Z,34.87
2018-12-21T09:45:24.983Z,32.53
2018-12-21T09:47:55.952Z,31.07
2018-12-21T09:50:27.535Z,38.70
2018-12-21T09:52:58.651Z,33.67
2018-12-21T09:55:28.814Z,30.43
2018-12-21T09:57:58.799Z,32.17
2018-12-21T10:00:29.698Z,33.17
2018-12-21T10:02:59.909Z,37.13
2018-12-21T10:05:30.527Z,43.33
2018-12-21T10:08:01.418Z,41.33
2018-12-21T10:10:32.025Z,38.73
2018-12-21T10:13:02.601Z,36.80
2018-12-21T10:15:33.423Z,35.23
2018-12-21T10:18:02.991Z,34.73
2018-12-21T10:20:34.030Z,38.30
2018-12-21T10:23:03.269Z,33.60
2018-12-21T10:25:34.016Z,40.67
2018-12-21T10:28:03.585Z,35.63
2018-12-21T10:30:33.082Z,38.10
2018-12-21T10:33:02.613Z,41.43
2018-12-21T10:35:32.162Z,42.10
2018-12-21T10:38:01.930Z,38.50
2018-12-21T10:40:31.439Z,32.73
2018-12-21T10:43:01.055Z,34.00
2018-12-21T10:45:30.620Z,33.80
2018-12-21T10:48:00.277Z,40.77
2018-12-21T10:50:29.786Z,37.47
2018-12-21T10:53:00.620Z,36.40
2018-12-21T10:55:30.534Z,43.33
2018-12-21T10:58:00.016Z,35.20
2018-12-21T11:00:29.543Z,42.87
2018-12-21T11:02:59.067Z,51.60
2018-12-21T11:05:28.576Z,60.23
2018-12-21T11:07:57.742Z,61.20
2018-12-21T11:10:27.203Z,51.93
2018-12-21T11:12:56.385Z,58.70
2018-12-21T11:15:25.796Z,54.20
2018-12-21T11:17:55.291Z,56.73
2018-12-21T11:20:24.807Z,66.17
2018-12-21T11:22:54.581Z,58.97
2018-12-21T11:25:24.147Z,55.70
2018-12-21T11:27:53.654Z,74.73
2018-12-21T11:30:22.826Z,83.90
2018-12-21T11:32:52.240Z,64.27
2018-12-21T11:35:21.739Z,41.57
2018-12-21T11:37:51.247Z,33.97
2018-12-21T11:40:21.375Z,35.97
2018-12-21T11:42:50.874Z,34.13
2018-12-21T11:45:20.408Z,34.23
2018-12-21T11:47:49.559Z,36.33
2018-12-21T11:50:19.004Z,42.43
2018-12-21T11:52:50.956Z,41.20
2018-12-21T11:55:21.795Z,31.53
2018-12-21T12:00:35.623Z,25.37
2018-12-21T12:03:04.903Z,29.10
2018-12-21T12:05:35.055Z,23.80
2018-12-21T12:08:06.842Z,22.53
2018-12-21T12:10:37.214Z,22.53
2018-12-21T12:13:07.362Z,29.43
2018-12-21T12:15:37.934Z,33.70
2018-12-21T12:18:08.406Z,21.47
2018-12-21T12:20:37.884Z,24.30
2018-12-21T12:23:07.420Z,25.60
2018-12-21T12:25:36.931Z,24.83
2018-12-21T12:28:06.443Z,22.70
2018-12-21T12:30:35.958Z,22.17
2018-12-21T12:33:05.463Z,23.00
2018-12-21T12:35:34.966Z,25.17
2018-12-21T12:38:04.498Z,20.30
2018-12-21T12:40:33.652Z,19.43
2018-12-21T12:43:03.105Z,23.83
2018-12-21T12:45:32.654Z,22.53
2018-12-21T12:48:02.138Z,22.63
2018-12-21T12:50:31.640Z,31.00
2018-12-21T12:53:01.166Z,40.87
2018-12-21T12:55:30.675Z,44.53
2018-12-21T12:58:00.248Z,45.27
2018-12-21T13:00:29.414Z,42.23
2018-12-21T13:02:58.827Z,51.27
2018-12-21T13:05:28.431Z,45.60
2018-12-21T13:07:57.934Z,45.57
2018-12-21T13:10:27.537Z,45.00
2018-12-21T13:12:57.282Z,35.50
2018-12-21T13:15:26.793Z,35.30
2018-12-21T13:17:56.294Z,24.80
2018-12-21T13:20:25.870Z,37.77
2018-12-21T13:22:55.380Z,45.97
2018-12-21T13:25:24.926Z,40.83
2018-12-21T13:27:54.410Z,29.10
2018-12-21T13:30:24.283Z,33.43
2018-12-21T13:32:53.793Z,34.03
2018-12-21T13:35:23.318Z,35.20
2018-12-21T13:37:52.823Z,29.53
2018-12-21T13:40:22.358Z,30.93
2018-12-21T13:42:51.854Z,27.67
2018-12-21T13:45:21.344Z,27.57
2018-12-21T13:47:50.839Z,28.13
2018-12-21T13:50:20.370Z,32.27
2018-12-21T13:52:50.440Z,31.67
2018-12-21T13:55:20.760Z,26.93
2018-12-21T13:57:51.245Z,35.50
2018-12-21T14:00:21.787Z,25.20
2018-12-21T14:02:52.146Z,29.20
2018-12-21T14:05:21.882Z,32.27
2018-12-21T14:07:52.308Z,30.60
2018-12-21T14:10:22.155Z,33.93
2018-12-21T14:12:53.502Z,31.50
2018-12-21T14:15:23.914Z,33.27
2018-12-21T14:17:53.447Z,25.70
2018-12-21T14:20:24.004Z,28.37
2018-12-21T14:22:55.071Z,32.07
2018-12-21T14:25:29.044Z,27.20
2018-12-21T14:27:59.878Z,26.27
2018-12-21T14:30:30.306Z,27.17
2018-12-21T14:33:01.201Z,28.17
2018-12-21T14:35:31.499Z,32.43
2018-12-21T14:38:01.352Z,29.67
2018-12-21T14:40:31.122Z,24.73
2018-12-21T14:43:00.644Z,31.83
2018-12-21T14:45:30.804Z,28.10
2018-12-21T14:48:00.236Z,25.17
2018-12-21T14:50:29.801Z,26.77
2018-12-21T14:52:59.304Z,26.67
2018-12-21T14:55:37.261Z,27.10
2018-12-21T14:58:00.326Z,27.77
2018-12-21T15:00:30.252Z,29.10
2018-12-21T15:02:59.834Z,27.63
2018-12-21T15:05:29.331Z,27.00
2018-12-21T15:07:58.859Z,31.07
2018-12-21T15:10:28.418Z,26.63
2018-12-21T15:12:57.582Z,29.73
2018-12-21T15:15:26.991Z,33.73
2018-12-21T15:17:56.558Z,53.73
2018-12-21T15:20:26.074Z,41.60
2018-12-21T15:22:56.050Z,49.23
2018-12-21T15:25:25.611Z,52.27
2018-12-21T15:27:55.140Z,58.90
2018-12-21T15:30:24.631Z,40.00
2018-12-21T15:32:54.147Z,52.47
2018-12-21T15:35:23.634Z,47.77
2018-12-21T15:37:53.130Z,36.37
2018-12-21T15:40:22.638Z,36.73
2018-12-21T15:42:51.782Z,36.77
2018-12-21T15:45:21.198Z,45.93
2018-12-21T15:47:50.621Z,43.63
2018-12-21T15:50:23.005Z,35.97
2018-12-21T15:52:53.730Z,35.90
2018-12-21T15:55:24.290Z,35.40
2018-12-21T15:57:53.798Z,34.53
2018-12-21T16:00:24.523Z,39.80
2018-12-21T16:02:55.610Z,39.60
2018-12-21T16:05:25.114Z,42.00
2018-12-21T16:07:54.614Z,33.77
2018-12-21T16:10:24.538Z,35.47
2018-12-21T16:12:53.670Z,42.80
2018-12-21T16:15:23.998Z,38.03
2018-12-21T16:17:54.077Z,35.63
2018-12-21T16:20:24.679Z,35.90
2018-12-21T16:22:55.342Z,33.57
2018-12-21T16:25:26.252Z,32.13
2018-12-21T16:27:56.786Z,38.73
2018-12-21T16:30:27.367Z,41.93
2018-12-21T16:32:58.147Z,38.23
2018-12-21T16:35:28.908Z,40.53
2018-12-21T16:37:59.556Z,38.57
2018-12-21T16:40:30.319Z,43.60
2018-12-21T16:43:00.408Z,35.20
2018-12-21T16:45:30.036Z,35.93
2018-12-21T16:48:00.181Z,32.50
2018-12-21T16:50:30.883Z,35.10
2018-12-21T16:55:44.151Z,47.43
2018-12-21T16:58:14.841Z,52.30
2018-12-21T17:00:44.339Z,47.10
2018-12-21T17:03:15.763Z,45.40
2018-12-21T17:05:45.343Z,45.73
2018-12-21T17:08:14.842Z,41.57
2018-12-21T17:10:45.170Z,39.40
2018-12-21T17:13:14.686Z,37.90
2018-12-21T17:15:43.843Z,41.27
2018-12-21T17:18:13.784Z,39.93
2018-12-21T17:20:44.322Z,46.20
2018-12-21T17:23:13.889Z,44.10
2018-12-21T17:25:43.688Z,41.57
2018-12-21T17:28:13.695Z,38.63
2018-12-21T17:30:43.492Z,42.30
2018-12-21T17:33:13.564Z,33.27
2018-12-21T17:35:43.277Z,38.93
2018-12-21T17:38:13.152Z,33.73
2018-12-21T17:40:42.655Z,35.07
2018-12-21T17:43:12.187Z,37.13
2018-12-21T17:45:41.664Z,41.97
2018-12-21T17:48:10.807Z,35.10
2018-12-21T17:50:40.247Z,37.83
2018-12-21T17:53:09.763Z,43.37
2018-12-21T17:55:38.904Z,38.83
2018-12-21T17:58:08.354Z,38.83
2018-12-21T18:00:38.367Z,38.37
2018-12-21T18:03:10.911Z,34.27
2018-12-21T18:05:40.435Z,36.40
2018-12-21T18:08:09.974Z,35.70
2018-12-21T18:10:39.473Z,37.43
2018-12-21T18:13:08.967Z,42.10
2018-12-21T18:15:38.474Z,39.93
2018-12-21T18:18:07.991Z,45.43
2018-12-21T18:20:37.483Z,42.00
2018-12-21T18:23:09.215Z,40.73
2018-12-21T18:25:39.189Z,47.27
2018-12-21T18:28:11.260Z,35.20
2018-12-21T18:30:46.539Z,38.47
2018-12-21T18:33:18.119Z,36.03
2018-12-21T18:35:47.626Z,35.93
2018-12-21T18:38:20.002Z,36.77
2018-12-21T18:40:49.508Z,38.47
2018-12-21T18:43:18.641Z,43.00
2018-12-21T18:45:48.113Z,37.57
2018-12-21T18:48:17.830Z,39.57
2018-12-21T18:50:47.410Z,37.37
2018-12-21T18:53:16.972Z,30.43
2018-12-21T18:55:48.887Z,36.17
2018-12-21T18:58:18.390Z,33.90
2018-12-21T19:00:47.911Z,36.17
2018-12-21T19:03:17.086Z,34.67
2018-12-21T19:05:46.510Z,34.17
2018-12-21T19:08:16.016Z,33.50
2018-12-21T19:10:45.523Z,36.10
2018-12-21T19:13:15.044Z,36.37
2018-12-21T19:15:44.190Z,38.40
2018-12-21T19:18:13.607Z,35.73
2018-12-21T19:20:43.209Z,37.73
2018-12-21T19:23:12.739Z,33.73
2018-12-21T19:25:42.234Z,36.87
2018-12-21T19:28:11.727Z,39.93
2018-12-21T19:30:41.755Z,39.23
2018-12-21T19:33:11.269Z,32.63
2018-12-21T19:35:41.555Z,33.23
2018-12-21T19:38:11.054Z,46.40
2018-12-21T19:40:40.569Z,40.97
2018-12-21T19:43:10.080Z,42.27
2018-12-21T19:45:39.610Z,43.30
2018-12-21T19:48:09.112Z,45.20
2018-12-21T19:50:38.598Z,41.30
2018-12-21T19:53:08.099Z,36.87
2018-12-21T19:55:46.951Z,48.53
2018-12-21T19:58:17.431Z,45.27
2018-12-21T20:00:46.966Z,45.17
2018-12-21T20:03:16.474Z,44.43
2018-12-21T20:05:45.610Z,53.20
2018-12-21T20:08:14.778Z,45.47
2018-12-21T20:10:59.064Z,49.50
2018-12-21T20:13:28.218Z,52.10
2018-12-21T20:15:57.668Z,49.20
2018-12-21T20:18:33.751Z,55.93
2018-12-21T20:21:03.001Z,54.37
2018-12-21T20:23:32.451Z,57.63
2018-12-21T20:26:01.735Z,50.83
2018-12-21T20:28:31.186Z,51.77
2018-12-21T20:31:02.763Z,51.20
2018-12-21T20:33:32.445Z,49.97
2018-12-21T20:36:02.611Z,50.03
2018-12-21T20:38:37.433Z,55.33
2018-12-21T20:41:08.424Z,59.27
2018-12-21T20:43:37.873Z,59.67
2018-12-21T20:46:08.480Z,56.27
2018-12-21T20:48:38.158Z,60.70
2018-12-21T20:51:07.870Z,60.67
2018-12-21T20:53:37.079Z,51.30
2018-12-21T20:56:06.514Z,55.30
2018-12-21T20:58:39.451Z,55.03
2018-12-21T21:01:08.681Z,54.80
2018-12-21T21:03:38.311Z,53.90
2018-12-21T21:06:08.134Z,49.53
2018-12-21T21:08:38.249Z,48.47
2018-12-21T21:11:07.772Z,49.03
2018-12-21T21:13:36.933Z,59.67
2018-12-21T21:16:06.434Z,61.10
2018-12-21T21:18:35.965Z,54.07
2018-12-21T21:21:05.838Z,55.80
2018-12-21T21:23:35.487Z,63.67
2018-12-21T21:26:05.066Z,52.23
2018-12-21T21:28:34.737Z,48.10
2018-12-21T21:31:04.282Z,39.43
2018-12-21T21:33:33.862Z,44.77
2018-12-21T21:36:03.382Z,44.07
2018-12-21T21:38:32.916Z,44.13
2018-12-21T21:41:02.108Z,35.77
2018-12-21T21:46:48.136Z,32.47
2018-12-21T21:49:19.455Z,41.20
2018-12-21T21:51:49.901Z,38.73
2018-12-21T21:54:19.422Z,43.27
2018-12-21T21:56:48.954Z,36.20
2018-12-21T21:59:28.918Z,32.10
2018-12-21T22:02:03.329Z,36.53
2018-12-21T22:04:38.844Z,37.20
2018-12-21T22:07:08.392Z,32.33
2018-12-21T22:09:37.891Z,36.87
2018-12-21T22:12:07.386Z,32.63
2018-12-21T22:14:37.346Z,33.47
2018-12-21T22:17:06.846Z,42.87
2018-12-21T22:19:36.355Z,29.77
2018-12-21T22:22:05.851Z,32.20
2018-12-21T22:24:35.658Z,34.63
2018-12-21T22:27:05.181Z,36.13
2018-12-21T22:29:34.947Z,35.97
2018-12-21T22:32:04.914Z,44.07
2018-12-21T22:34:34.447Z,36.53
2018-12-21T22:37:11.476Z,31.60
2018-12-21T22:39:41.862Z,31.93
2018-12-21T22:42:11.374Z,30.50
2018-12-21T22:44:40.877Z,31.60
2018-12-21T22:47:10.390Z,25.43
2018-12-21T22:49:39.898Z,21.53
2018-12-21T22:52:09.414Z,22.13
2018-12-21T22:54:38.947Z,21.70
2018-12-21T22:57:08.482Z,20.83
2018-12-21T22:59:37.992Z,25.73
2018-12-21T23:02:07.499Z,21.57
2018-12-21T23:04:37.042Z,23.70
2018-12-21T23:07:06.555Z,21.07
2018-12-21T23:09:36.043Z,20.90
2018-12-21T23:12:05.918Z,22.77
2018-12-21T23:14:35.410Z,20.47
2018-12-21T23:17:04.950Z,20.53
2018-12-21T23:19:34.446Z,22.07
2018-12-21T23:22:03.971Z,19.47
2018-12-21T23:24:33.471Z,19.60
2018-12-21T23:27:03.002Z,19.03
2018-12-21T23:29:32.612Z,22.17
2018-12-21T23:32:02.146Z,20.97
2018-12-21T23:34:31.671Z,19.33
2018-12-21T23:37:01.158Z,18.33
2018-12-21T23:39:30.655Z,19.80
2018-12-21T23:41:59.843Z,16.57
2018-12-21T23:44:29.245Z,18.50
2018-12-21T23:46:58.740Z,17.97
2018-12-21T23:49:28.274Z,18.23
2018-12-21T23:51:58.043Z,21.10
2018-12-21T23:54:27.584Z,17.10
2018-12-21T23:56:57.076Z,21.27
2018-12-21T23:59:26.574Z,19.07
